SWR39E KSFO-LSZH
Flight info
| Callsign | SWR39E |
|---|---|
| Flight time | N/A |
| Altitude | 31000 |
| Route | SNTNA2 DEDHD DCT LKV DCT MLP J540 STIGS DCT 53N110W 56N105W 60N094W/N0489F330 65N082W 67N070W/M084F330 DCT DARUB DCT 67N050W 66N040W 65N030W/M084F350 63N020W DCT ATSIX/N0482F350 DCT AKIVO DCT NEXUS DCT GODOS DCT SUTAL DCT GTQ DCT BAMEV DCT BLM |
| Aircraft | B77W/H-SDE1E2E3FGHIJ2J3J4J5M1RWXY/LB1D1 |
Departure
| Time | N/A |
|---|---|
| Airport | San Francisco International Airport (KSFO) |
Arrival
| Time | 2026-05-03 20:42 |
|---|---|
| Airport | Zürich Airport (LSZH) |
| Time | Latitude | Longitude | Altitude | Speed | Heading |
|---|---|---|---|---|---|
| 2026-05-03 20:32 | 47.34552 | 8.52989 | 11767 ft | 370 kts | 101° |
| 2026-05-03 20:32 | 47.34158 | 8.56726 | 11488 ft | 368 kts | 99° |
| 2026-05-03 20:32 | 47.33811 | 8.60489 | 11221 ft | 359 kts | 99° |
| 2026-05-03 20:32 | 47.33501 | 8.64084 | 10921 ft | 338 kts | 98° |
| 2026-05-03 20:33 | 47.33222 | 8.67443 | 10712 ft | 317 kts | 99° |
| 2026-05-03 20:33 | 47.32974 | 8.70569 | 10580 ft | 297 kts | 99° |
| 2026-05-03 20:33 | 47.32753 | 8.73495 | 10469 ft | 280 kts | 99° |
| 2026-05-03 20:33 | 47.32544 | 8.76297 | 10103 ft | 273 kts | 99° |
| 2026-05-03 20:34 | 47.32342 | 8.79045 | 9637 ft | 270 kts | 98° |
| 2026-05-03 20:34 | 47.32140 | 8.81774 | 9130 ft | 268 kts | 98° |
| 2026-05-03 20:34 | 47.31939 | 8.84488 | 8617 ft | 267 kts | 98° |
| 2026-05-03 20:34 | 47.31739 | 8.87190 | 8077 ft | 265 kts | 97° |
| 2026-05-03 20:35 | 47.31859 | 8.89839 | 7778 ft | 256 kts | 73° |
| 2026-05-03 20:35 | 47.32701 | 8.92023 | 7694 ft | 238 kts | 49° |
| 2026-05-03 20:35 | 47.33969 | 8.93400 | 7576 ft | 219 kts | 26° |
| 2026-05-03 20:35 | 47.35384 | 8.93936 | 7376 ft | 207 kts | 5° |
| 2026-05-03 20:36 | 47.36808 | 8.93729 | 6953 ft | 207 kts | 343° |
| 2026-05-03 20:36 | 47.38086 | 8.92809 | 6576 ft | 205 kts | 324° |
| 2026-05-03 20:36 | 47.39214 | 8.91551 | 6286 ft | 203 kts | 322° |
| 2026-05-03 20:36 | 47.40330 | 8.90288 | 5975 ft | 202 kts | 322° |
| 2026-05-03 20:37 | 47.41440 | 8.89029 | 5671 ft | 201 kts | 322° |
| 2026-05-03 20:37 | 47.42543 | 8.87773 | 5369 ft | 199 kts | 321° |
| 2026-05-03 20:37 | 47.43387 | 8.86203 | 5051 ft | 195 kts | 289° |
| 2026-05-03 20:37 | 47.43694 | 8.84263 | 5009 ft | 196 kts | 277° |
| 2026-05-03 20:38 | 47.43853 | 8.82255 | 5001 ft | 198 kts | 275° |
| 2026-05-03 20:38 | 47.43991 | 8.80220 | 4784 ft | 200 kts | 275° |
| 2026-05-03 20:38 | 47.44133 | 8.78190 | 4494 ft | 197 kts | 276° |
| 2026-05-03 20:38 | 47.44272 | 8.76242 | 4207 ft | 185 kts | 276° |
| 2026-05-03 20:39 | 47.44404 | 8.74408 | 3951 ft | 176 kts | 276° |
| 2026-05-03 20:39 | 47.44532 | 8.72638 | 3699 ft | 173 kts | 276° |
| 2026-05-03 20:39 | 47.44661 | 8.70880 | 3444 ft | 169 kts | 276° |
| 2026-05-03 20:39 | 47.44780 | 8.69233 | 3204 ft | 155 kts | 276° |
| 2026-05-03 20:40 | 47.44895 | 8.67650 | 2981 ft | 155 kts | 275° |
| 2026-05-03 20:40 | 47.45008 | 8.66088 | 2753 ft | 151 kts | 275° |
| 2026-05-03 20:40 | 47.45118 | 8.64554 | 2531 ft | 151 kts | 275° |
| 2026-05-03 20:40 | 47.45211 | 8.62998 | 2324 ft | 153 kts | 274° |
| 2026-05-03 20:41 | 47.45341 | 8.61449 | 2140 ft | 152 kts | 277° |
| 2026-05-03 20:41 | 47.45459 | 8.59913 | 1912 ft | 151 kts | 275° |
| 2026-05-03 20:41 | 47.45566 | 8.58366 | 1665 ft | 149 kts | 277° |
| 2026-05-03 20:41 | 47.45677 | 8.56852 | 1432 ft | 147 kts | 276° |
| 2026-05-03 20:42 | 47.45764 | 8.55576 | 1398 ft | 93 kts | 277° |
| 2026-05-03 20:42 | 47.45821 | 8.54793 | 1388 ft | 67 kts | 276° |
| 2026-05-03 20:42 | 47.45860 | 8.54381 | 1392 ft | 27 kts | 285° |
| 2026-05-03 20:42 | 47.45946 | 8.54278 | 1393 ft | 7 kts | 36° |
| 2026-05-03 20:43 | 47.45955 | 8.54322 | 1392 ft | 2 kts | 90° |
| 2026-05-03 20:43 | 47.45953 | 8.54375 | 1391 ft | 8 kts | 96° |
| 2026-05-03 20:43 | 47.45946 | 8.54471 | 1390 ft | 10 kts | 97° |
| 2026-05-03 20:43 | 47.45938 | 8.54583 | 1388 ft | 11 kts | 94° |
| 2026-05-03 20:44 | 47.45932 | 8.54706 | 1387 ft | 12 kts | 97° |
| 2026-05-03 20:44 | 47.45922 | 8.54831 | 1387 ft | 12 kts | 97° |
| 2026-05-03 20:44 | 47.45920 | 8.54942 | 1388 ft | 9 kts | 70° |
| 2026-05-03 20:44 | 47.45974 | 8.55012 | 1387 ft | 10 kts | 31° |
| 2026-05-03 20:45 | 47.46037 | 8.55059 | 1388 ft | 7 kts | 8° |
| 2026-05-03 20:45 | 47.46091 | 8.55037 | 1389 ft | 7 kts | 339° |
| 2026-05-03 20:45 | 47.46139 | 8.55004 | 1389 ft | 7 kts | 333° |
| 2026-05-03 20:45 | 47.46186 | 8.54971 | 1389 ft | 8 kts | 335° |
| 2026-05-03 20:46 | 47.46242 | 8.54945 | 1389 ft | 8 kts | 5° |
| 2026-05-03 20:46 | 47.46283 | 8.54999 | 1390 ft | 7 kts | 71° |
| 2026-05-03 20:46 | 47.46283 | 8.55076 | 1390 ft | 7 kts | 96° |
| 2026-05-03 20:46 | 47.46277 | 8.55160 | 1390 ft | 8 kts | 96° |
| 2026-05-03 20:47 | 47.46271 | 8.55249 | 1390 ft | 8 kts | 95° |
| 2026-05-03 20:47 | 47.46256 | 8.55286 | 1391 ft | 3 kts | 160° |
| 2026-05-03 20:47 | 47.46232 | 8.55289 | 1390 ft | 4 kts | 179° |
| 2026-05-03 20:47 | 47.46200 | 8.55285 | 1390 ft | 3 kts | 185° |
| 2026-05-03 20:48 | 47.46197 | 8.55285 | 1390 ft | 0 kts | 185° |